Terminal Aerodrome Forecast
Issued by NWS

Home | Current Version | Previous Version | Text Only | Print | Product List | Glossary On
Versions: 1 2 3 4 5 6 7 8 9 10 11 12 13 14 15 16 17 18 19 20 21 22 23
000
FTPA31 PHFO 311700
TAFJHM
TAF
PHJH 311727Z 3118/0118 05011KT P6SM FEW025
     FM312000 05015G25KT P6SM FEW030 SCT045
     FM010800 05011KT P6SM FEW025 SCT045
      AMD NOT SKED AFT 010400=

USA.gov is the U.S. government's official web portal to all federal, state and local government web resources and services.